默认 日期 大小 文件数 浏览量 最新下载 xml
guerrilla磁力链接相关资源由用户搜索指令自动获取,结果来源于网络,本站不存储任何资料,亦不承担任何责任,请于24小时内删除,搜索到1309个磁力,用时1ms。
    {"Red Faction Guerrilla.iso": 4682737664}
创建时间: 2020-05-18 21:23:09 大小:4.36 GB 文件数量:1 热度:3 最近下载:2022-04-08 06:36:39
    {"Screenshot-001.jpg": 92810, "Screenshot-002.jpg": 118315, "Screenshot-003.jpg": 65653, "Screenshot-004.jpg": 63371, "Torrent-Downloaded-from-ExtraTorrent.cc.txt": 289, "Guerrilla.E06.720p.AMZN.WEBRip.DDP5.1.x264-NTb[ettv].mkv": 2033318153}
创建时间: 2020-05-18 22:45:43 大小:1.89 GB 文件数量:6 热度:3 最近下载:2022-04-08 05:58:52
    ... .Citizen's_Band.mp3": 11526375, "Super_Furry_Animals.Guerrilla.04.Northern_Lites.mp3": 8392978, "Super_Furry_Animals ... .Keep_the_Cosmic_Trigger_Happy_(end).mp3": 516505, "Super_Furry_Animals.Guerrilla.06.Wherever_I_Lay_My_Phone_(That's_My_Home).mp3 ...
创建时间: 2020-05-21 03:37:58 大小:112.55 MB 文件数量:16 热度:5 最近下载:2025-05-18 18:34:02
    {"data.bin": 61058240, "vcredist": {"DirectX": {"DirectX Web setup.exe": 299864}, "vcredist_x64.exe": 3175832, "vcredist_x86.exe": 2707352}, "Setup.exe": 8111706, "data1.bin": 8835711463, "data2.bin": 7234590664}
创建时间: 2020-05-27 15:45:20 大小:15.04 GB 文件数量:7 热度:2 最近下载:2021-06-17 16:25:58
    {"Soft": {"Redist": {"vcredist_x64.exe": 10274136, "vcredist_x86.exe": 8990552}, "DirectX": {"DXSETUP.exe": 299864}}, "Setup.exe": 3968408, "crack.bin": 119695, "data-1.bin": 3389903529, "data-2.bin": 3330845887, "data-3.bin": 1794598378, "data-steam.bin": ...
创建时间: 2020-05-28 23:53:52 大小:7.95 GB 文件数量:9 热度:2 最近下载:2022-04-12 05:46:17
    {"data.bin": 61058240, "vcredist": {"DirectX": {"DirectX Web setup.exe": 299864}, "vcredist_x64.exe": 3175832, "vcredist_x86.exe": 2707352}, "Setup.exe": 8111526, "data1.bin": 8835711463, "data2.bin": 7234590664}
创建时间: 2020-06-03 01:15:33 大小:15.04 GB 文件数量:7 热度:1 最近下载:2021-06-17 16:25:58
    {"RFact3ionGuerr5illaSte7am-16.11.2016-elamigos.part01.rar": 1073636966, "RFact3ionGuerr5illaSte7am-16.11.2016-elamigos.part02.rar": 1073636966, "RFact3ionGuerr5illaSte7am-16.11.2016-elamigos.part03.rar": 1073636966, "RFact3ionGuerr5illaSte7am-16.11.2016- ...
创建时间: 2020-06-04 21:50:59 大小:8 GB 文件数量:8 热度:1 最近下载:2021-06-17 16:25:58
    {"RFGue2rril6laReMa8rstered-4931-elamigos.part01.rar": 1072693248, "RFGue2rril6laReMa8rstered-4931-elamigos.part02.rar": 1072693248, "RFGue2rril6laReMa8rstered-4931-elamigos.part03.rar": 1072693248, "RFGue2rril6laReMa8rstered-4931-elamigos.part04.rar": ...
创建时间: 2020-06-06 21:13:10 大小:17.76 GB 文件数量:18 热度:6 最近下载:2025-03-25 15:50:02
    {"rf4ct10ngu3rr1ll4r3m45t3r3d ZonaLeRoS.part1.rar": 3221225472, "rf4ct10ngu3rr1ll4r3m45t3r3d ZonaLeRoS.part2.rar": 3221225472, "rf4ct10ngu3rr1ll4r3m45t3r3d ZonaLeRoS.part3.rar": 3221225472, "rf4ct10ngu3rr1ll4r3m45t3r3d ZonaLeRoS.part4.rar": 3221225472, " ...
创建时间: 2020-06-08 12:29:16 大小:18.34 GB 文件数量:7 热度:3 最近下载:2022-04-14 06:00:50
    {"r3df4ct10ngu3rr1ll4 ZonaLeRoS.part1.rar": 2147483648, "r3df4ct10ngu3rr1ll4 ZonaLeRoS.part2.rar": 2147483648, "r3df4ct10ngu3rr1ll4 ZonaLeRoS.part3.rar": 2147483648, "r3df4ct10ngu3rr1ll4 ZonaLeRoS.part4.rar": 2147483648, "r3df4ct10ngu3rr1ll4 ZonaLeRoS. ...
创建时间: 2020-06-08 20:49:55 大小:8.26 GB 文件数量:5 热度:3 最近下载:2025-01-20 10:50:03
    ... ColdFilm.Ru.mkv": 1627941571, "Guerrilla.S01E02.720p.HDTV.ColdFilm.Ru ... .mkv": 1528214274, "Guerrilla.S01E03.720p.HDTV.ColdFilm.Ru ... .mkv": 1528789699, "Guerrilla.S01E04.720p.HDTV.ColdFilm.Ru ... .mkv": 1524716297, "Guerrilla.S01E05.720p.HDTV.ColdFilm.Ru ...
创建时间: 2020-06-12 18:13:21 大小:8.76 GB 文件数量:6 热度:2 最近下载:2022-04-14 06:00:50
    {"data.bin": 61058240, "vcredist": {"DirectX": {"DirectX Web setup.exe": 299864}, "vcredist_x64.exe": 3175832, "vcredist_x86.exe": 2707352}, "Setup.exe": 8111880, "data1.bin": 8835711463, "data2.bin": 7234590664}
创建时间: 2020-06-14 17:17:41 大小:15.04 GB 文件数量:7 热度:3 最近下载:2022-04-14 06:06:59
    {"01 Maria.m4a": 5932578, "06 Tempt Me.m4a": 8266032, "07 Morning Dew.m4a": 15916347, "10 County Line.m4a": 10146879, "02 Cruel Highway.m4a": 8288728, "11 I Got A Right.m4a": 7137431, "08 Long Dark Night.m4a": 8677806, "05 Saints Of Mexico.m4a": 8560506, " ...
创建时间: 2020-06-16 12:07:45 大小:101.27 MB 文件数量:11 热度:2 最近下载:2022-04-15 06:07:48
    {"data.bin": 63315603, "vcredist": {"DirectX": {"DirectX Web setup.exe": 299864}, "vcredist_x64.exe": 3175832, "vcredist_x86.exe": 2707352}, "Setup.exe": 8083240, "data1.bin": 8835711463, "data2.bin": 7234590664}
创建时间: 2020-06-23 00:29:39 大小:15.04 GB 文件数量:7 热度:4 最近下载:2022-04-17 05:57:41
    {"01.png": 653970, "02.jpg": 4837926, "03.jpg": 463797, "04.jpg": 8318772, "05.jpg": 10209791, "06.jpg": 7948852, "07.jpg": 8688902, "08.jpg": 8829965, "09.jpg": 9791873, "10.jpg": 10265651, "11.jpg": 9822778, "12.jpg": 7460762, "13.jpg": 8555943, "14.jpg ...
创建时间: 2020-06-26 16:35:14 大小:150.88 MB 文件数量:22 热度:9 最近下载:2025-08-07 22:03:09
    {"01.png": 822476, "02.jpg": 5572579, "03.jpg": 6180476, "04.jpg": 5745994, "05.jpg": 5608487, "06.jpg": 5488430, "07.jpg": 5424773, "08.jpg": 5337647, "09.jpg": 6556201, "10.jpg": 5744361, "11.jpg": 5392459, "12.jpg": 5141530, "13.jpg": 5581370, "14.jpg": ...
创建时间: 2020-06-27 12:35:08 大小:92.65 MB 文件数量:17 热度:10 最近下载:2025-08-09 23:09:02
    {"data.bin": 63315603, "vcredist": {"DirectX": {"DirectX Web setup.exe": 299864}, "vcredist_x64.exe": 3175832, "vcredist_x86.exe": 2707352}, "Setup.exe": 8083237, "data1.bin": 8835711463, "data2.bin": 7234590664}
创建时间: 2020-06-27 17:28:22 大小:15.04 GB 文件数量:7 热度:1 最近下载:2021-06-17 16:25:58
    {"RARBG.txt": 30, "Guerrilla.E06.720p.AMZN.WEBRip.DDP5.1.x264-NTb.mkv": 2033318153}
创建时间: 2020-07-01 06:47:11 大小:1.89 GB 文件数量:2 热度:2 最近下载:2021-06-17 16:25:58
    {"data.bin": 60897630, "vcredist": {"DirectX": {"DirectX Web setup.exe": 299864}, "vcredist_x64.exe": 3175832, "vcredist_x86.exe": 2707352}, "Setup.exe": 8083237, "data1.bin": 8835711463, "data2.bin": 7234590664}
创建时间: 2020-07-01 19:32:31 大小:15.04 GB 文件数量:7 热度:2 最近下载:2021-06-17 16:25:58
    {"codex.nfo": 5964, "SKIDROWRELOADED.COM.txt": 35, "codex-freeman.guerrilla.warfare.v1.4.iso": 7592214528}
创建时间: 2020-07-05 16:14:26 大小:7.07 GB 文件数量:3 热度:2 最近下载:2021-06-17 16:25:58